Time;durP1;ratioP1;P1;durP2;ratioP2;P2;SDS_P1;SDS_P2;PMS_P1;PMS_P2;Temp;Humidity;BMP_temperature;BMP_pressure;BME280_temperature;BME280_humidity;BME280_pressure;Samples;Min_cycle;Max_cycle;Signal;HPM_P1;HPM_P2
2022/02/01 00:00:15;;;;;;;19.80;6.13;;;5.60;93.90;;;;;;5047712;28;20548;-62
2022/02/01 00:02:50;;;;;;;19.88;4.97;;;5.60;94.00;;;;;;5038860;28;20758;-61
2022/02/01 00:05:33;;;;;;;22.13;5.03;;;5.70;94.10;;;;;;5052408;28;20021;-61
2022/02/01 00:08:11;;;;;;;18.75;6.30;;;5.70;94.10;;;;;;5033384;28;20049;-61
2022/02/01 00:18:30;;;;;;;16.98;5.88;;;5.70;94.10;;;;;;5032932;28;20033;-61
2022/02/01 00:37:17;;;;;;;24.13;6.47;;;5.50;94.60;;;;;;5040140;28;20091;-62
2022/02/01 00:39:44;;;;;;;24.08;7.38;;;5.50;94.70;;;;;;5031951;28;20041;-62
2022/02/01 00:42:17;;;;;;;20.42;6.72;;;5.50;94.70;;;;;;5032154;28;20543;-62
2022/02/01 00:44:42;;;;;;;22.38;6.70;;;5.50;94.90;;;;;;5046250;28;20053;-62
2022/02/01 00:47:08;;;;;;;23.10;6.85;;;5.60;94.80;;;;;;5036480;28;20120;-63
2022/02/01 00:49:35;;;;;;;21.95;6.03;;;5.50;94.90;;;;;;5051588;28;20089;-62
2022/02/01 00:52:02;;;;;;;16.67;5.63;;;5.50;95.20;;;;;;5051307;28;20028;-62
2022/02/01 00:54:28;;;;;;;18.38;7.15;;;5.50;95.10;;;;;;5049537;28;20481;-62
2022/02/01 00:56:54;;;;;;;18.40;7.55;;;5.50;95.40;;;;;;5047498;28;20043;-62
2022/02/01 00:59:19;;;;;;;18.38;5.82;;;5.50;95.20;;;;;;5031650;28;20127;-62
2022/02/01 01:01:45;;;;;;;18.92;6.32;;;5.50;95.20;;;;;;5048719;28;20076;-62
2022/02/01 01:04:10;;;;;;;15.95;5.80;;;5.60;95.20;;;;;;5039148;28;20052;-62
2022/02/01 01:06:36;;;;;;;16.40;6.28;;;5.60;95.20;;;;;;5046460;28;20021;-62
2022/02/01 01:09:02;;;;;;;17.73;6.38;;;5.60;95.20;;;;;;5050582;28;20102;-62
2022/02/01 01:11:28;;;;;;;14.35;5.40;;;5.60;95.30;;;;;;5051059;28;20098;-62
2022/02/01 01:14:24;;;;;;;17.98;6.55;;;5.60;95.30;;;;;;5038684;28;20029;-62
2022/02/01 01:17:12;;;;;;;23.08;5.68;;;5.60;95.30;;;;;;5049604;28;20048;-62
2022/02/01 01:44:32;;;;;;;20.33;6.70;;;5.60;95.30;;;;;;5030215;28;20120;-62
2022/02/01 01:53:08;;;;;;;22.65;7.68;;;5.50;95.40;;;;;;5047272;28;20021;-62
2022/02/01 01:53:11;;;;;;;15.32;6.35;;;5.50;95.30;;;;;;5031270;28;20389;-62
2022/02/01 01:55:39;;;;;;;24.52;8.23;;;5.40;95.50;;;;;;5031225;28;20037;-62
2022/02/01 01:58:06;;;;;;;21.73;8.93;;;5.40;95.60;;;;;;5030885;28;20085;-62
2022/02/01 02:01:03;;;;;;;16.38;7.00;;;5.30;95.60;;;;;;5037593;28;20103;-62
2022/02/01 02:03:29;;;;;;;26.73;8.18;;;5.40;95.70;;;;;;5050809;28;20086;-62
2022/02/01 02:05:55;;;;;;;24.48;8.13;;;5.40;95.70;;;;;;5041179;28;20041;-62
2022/02/01 02:08:20;;;;;;;20.52;8.63;;;5.40;95.70;;;;;;5036872;28;20120;-62
2022/02/01 02:10:55;;;;;;;17.52;8.07;;;5.40;95.70;;;;;;5035819;28;20040;-62
2022/02/01 02:15:56;;;;;;;22.85;7.93;;;5.50;95.70;;;;;;5042649;28;20128;-62
2022/02/01 02:18:22;;;;;;;22.13;8.82;;;5.50;95.60;;;;;;5044120;28;20049;-62
2022/02/01 02:20:49;;;;;;;19.48;7.80;;;5.60;95.60;;;;;;5035046;28;20029;-62
2022/02/01 02:23:14;;;;;;;20.67;8.23;;;5.50;95.60;;;;;;5038393;28;20165;-62
2022/02/01 02:25:40;;;;;;;18.65;7.65;;;5.60;95.60;;;;;;5034593;28;20105;-63
2022/02/01 02:28:08;;;;;;;21.83;7.55;;;5.60;95.60;;;;;;5039624;28;20156;-63
2022/02/01 02:30:34;;;;;;;19.13;7.88;;;5.60;95.50;;;;;;5054138;28;20033;-62
2022/02/01 02:33:05;;;;;;;22.02;8.20;;;5.60;95.50;;;;;;5054271;28;20460;-62
2022/02/01 02:35:35;;;;;;;18.90;7.57;;;5.60;95.50;;;;;;5036472;28;20079;-62
2022/02/01 02:38:05;;;;;;;19.52;7.97;;;5.60;95.60;;;;;;5034071;28;20480;-62
2022/02/01 02:40:57;;;;;;;18.70;8.07;;;5.70;95.60;;;;;;5038369;28;20033;-62
2022/02/01 02:46:04;;;;;;;24.20;8.55;;;5.70;95.50;;;;;;5034899;28;20087;-62
2022/02/01 02:48:29;;;;;;;16.40;8.07;;;5.70;95.60;;;;;;5047434;28;20029;-62
2022/02/01 02:50:55;;;;;;;22.90;7.78;;;5.60;95.60;;;;;;5054118;28;20463;-62
2022/02/01 02:53:20;;;;;;;18.83;9.32;;;5.60;95.60;;;;;;5021088;28;20040;-62
2022/02/01 02:55:46;;;;;;;17.65;7.68;;;5.60;95.60;;;;;;5034027;28;20018;-62
2022/02/01 02:58:12;;;;;;;21.48;7.90;;;5.60;95.60;;;;;;5045377;28;20040;-63
2022/02/01 03:00:38;;;;;;;18.90;6.75;;;5.60;95.70;;;;;;5053299;28;20053;-63
2022/02/01 03:03:04;;;;;;;15.77;7.72;;;5.60;95.70;;;;;;5023563;28;20029;-62
2022/02/01 03:05:30;;;;;;;20.42;7.68;;;5.70;95.70;;;;;;5033587;28;20025;-63
2022/02/01 03:07:55;;;;;;;17.20;7.75;;;5.70;95.70;;;;;;5033762;28;20039;-62
2022/02/01 03:10:21;;;;;;;17.08;8.20;;;5.70;95.70;;;;;;5033811;28;20034;-63
2022/02/01 03:13:09;;;;;;;16.70;8.15;;;5.70;95.80;;;;;;5035006;28;20472;-61
2022/02/01 03:15:44;;;;;;;19.30;8.57;;;5.70;95.80;;;;;;5039672;28;20040;-61
2022/02/01 03:20:54;;;;;;;21.20;8.52;;;5.70;95.80;;;;;;5034922;28;20040;-62
2022/02/01 03:23:19;;;;;;;21.08;9.57;;;5.70;95.80;;;;;;5033169;28;20025;-62
2022/02/01 03:25:45;;;;;;;17.45;8.25;;;5.70;95.90;;;;;;5031687;28;20373;-62
2022/02/01 03:28:10;;;;;;;19.80;8.52;;;5.70;96.10;;;;;;5033232;28;20036;-62
2022/02/01 03:30:35;;;;;;;19.75;8.38;;;5.70;95.90;;;;;;5037903;28;20100;-62
2022/02/01 03:33:01;;;;;;;20.67;9.50;;;5.80;95.90;;;;;;5053301;28;20032;-62
2022/02/01 03:35:27;;;;;;;24.15;8.73;;;5.80;95.90;;;;;;5032239;28;20013;-62
2022/02/01 03:37:52;;;;;;;18.83;8.10;;;5.80;95.90;;;;;;5032859;28;20037;-62
2022/02/01 03:40:20;;;;;;;21.35;8.63;;;5.90;95.90;;;;;;5032986;28;20112;-62
2022/02/01 03:42:45;;;;;;;16.83;8.40;;;5.90;95.80;;;;;;5032703;28;20473;-62
2022/02/01 03:45:11;;;;;;;21.85;7.90;;;5.90;95.80;;;;;;5031243;28;20034;-62
2022/02/01 03:47:37;;;;;;;24.52;7.97;;;6.00;95.80;;;;;;5032879;28;20071;-62
2022/02/01 03:50:07;;;;;;;20.90;8.32;;;5.90;95.80;;;;;;5015200;28;20071;-62
2022/02/01 03:52:33;;;;;;;20.42;8.32;;;5.90;95.70;;;;;;5040554;28;20118;-62
2022/02/01 03:54:58;;;;;;;20.35;9.38;;;5.90;95.70;;;;;;5052070;28;20415;-61
2022/02/01 03:57:23;;;;;;;22.92;9.07;;;5.90;95.70;;;;;;5046264;28;20026;-61
2022/02/01 03:59:49;;;;;;;22.27;9.65;;;5.90;95.60;;;;;;5041136;28;20087;-61
2022/02/01 04:02:16;;;;;;;22.33;8.40;;;5.90;95.60;;;;;;5052310;28;20036;-62
2022/02/01 04:04:42;;;;;;;22.92;9.43;;;5.90;95.60;;;;;;5052301;28;20029;-62
2022/02/01 04:07:08;;;;;;;22.80;9.55;;;5.80;95.70;;;;;;5049186;28;20541;-62
2022/02/01 04:09:35;;;;;;;18.48;9.27;;;5.80;95.70;;;;;;5032415;28;20605;-61
2022/02/01 04:12:02;;;;;;;19.08;9.68;;;5.80;95.60;;;;;;5034574;28;20029;-63
2022/02/01 04:14:32;;;;;;;24.65;9.55;;;5.80;95.70;;;;;;5032027;28;20021;-61
2022/02/01 04:16:59;;;;;;;22.80;10.10;;;5.80;95.70;;;;;;5040486;28;20021;-61
2022/02/01 04:19:26;;;;;;;21.48;10.30;;;5.70;95.70;;;;;;5051174;28;20099;-62
2022/02/01 04:22:00;;;;;;;19.73;9.18;;;5.70;95.70;;;;;;5044556;28;20040;-62
2022/02/01 04:24:26;;;;;;;24.30;9.63;;;5.70;95.70;;;;;;5032441;28;20029;-62
2022/02/01 04:26:52;;;;;;;21.70;9.45;;;5.80;95.80;;;;;;5037109;28;20032;-62
2022/02/01 04:29:18;;;;;;;24.33;10.75;;;5.80;95.70;;;;;;5032338;28;20037;-61
2022/02/01 04:31:43;;;;;;;25.55;10.27;;;5.80;95.60;;;;;;5036744;28;20637;-62
2022/02/01 04:34:09;;;;;;;23.38;9.57;;;5.70;95.60;;;;;;5052102;28;20036;-62
2022/02/01 04:36:35;;;;;;;16.60;9.30;;;5.70;95.60;;;;;;5048599;28;20025;-61
2022/02/01 04:39:00;;;;;;;22.88;9.98;;;5.70;95.60;;;;;;5032981;28;20117;-61
2022/02/01 04:41:28;;;;;;;22.50;10.45;;;5.70;95.60;;;;;;5031755;28;20043;-62
2022/02/01 04:43:54;;;;;;;21.98;9.52;;;5.70;95.60;;;;;;5047842;28;20110;-61
2022/02/01 04:46:23;;;;;;;21.27;9.57;;;5.70;95.60;;;;;;5049228;28;20090;-61
2022/02/01 04:48:49;;;;;;;24.30;10.10;;;5.70;95.70;;;;;;5031520;28;20047;-61
2022/02/01 04:51:16;;;;;;;20.15;9.80;;;5.60;95.70;;;;;;5050165;28;20467;-61
2022/02/01 04:53:42;;;;;;;19.40;9.07;;;5.70;95.70;;;;;;5049064;28;20120;-61
2022/02/01 04:56:07;;;;;;;21.23;9.93;;;5.70;95.70;;;;;;5016640;28;20112;-61
2022/02/01 04:58:33;;;;;;;17.98;9.10;;;5.70;95.70;;;;;;5031395;28;20486;-61
2022/02/01 05:00:58;;;;;;;22.15;10.20;;;5.70;95.70;;;;;;5048847;28;20480;-62
2022/02/01 05:03:24;;;;;;;15.95;8.48;;;5.70;95.70;;;;;;5051357;28;20020;-62
2022/02/01 05:05:50;;;;;;;24.73;9.73;;;5.70;95.60;;;;;;5037628;28;20087;-62
2022/02/01 05:08:16;;;;;;;17.67;8.95;;;5.70;95.60;;;;;;5032081;28;20076;-62
2022/02/01 05:10:42;;;;;;;20.98;8.55;;;5.80;95.60;;;;;;5031184;28;20053;-62
2022/02/01 05:16:18;;;;;;;26.63;9.30;;;5.80;95.60;;;;;;5034920;28;20025;-62
2022/02/01 05:18:47;;;;;;;16.85;9.00;;;5.70;95.60;;;;;;5039597;28;20411;-62
2022/02/01 05:21:21;;;;;;;20.48;9.40;;;5.70;95.60;;;;;;5051091;28;20423;-62
2022/02/01 05:23:48;;;;;;;21.02;8.77;;;5.70;95.60;;;;;;5037758;28;20477;-62
2022/02/01 05:26:14;;;;;;;23.10;9.57;;;5.70;95.90;;;;;;5031810;28;20060;-62
2022/02/01 05:28:41;;;;;;;19.70;9.23;;;5.60;95.80;;;;;;5040544;28;20108;-63
2022/02/01 05:31:07;;;;;;;25.35;10.55;;;5.60;95.90;;;;;;5031200;28;20137;-62
2022/02/01 05:33:33;;;;;;;22.00;10.13;;;5.60;96.00;;;;;;5031122;28;20120;-62
2022/02/01 05:36:01;;;;;;;15.38;8.65;;;5.50;96.10;;;;;;5020062;28;20025;-61
2022/02/01 05:38:27;;;;;;;14.77;8.77;;;5.50;96.20;;;;;;5050799;28;20033;-61
2022/02/01 05:40:53;;;;;;;18.42;9.38;;;5.50;96.20;;;;;;5039140;28;20456;-62
2022/02/01 05:43:23;;;;;;;18.77;9.02;;;5.50;96.30;;;;;;5017218;28;20025;-61
2022/02/01 05:45:50;;;;;;;20.55;10.35;;;5.50;96.40;;;;;;5041064;28;20025;-61
2022/02/01 05:48:15;;;;;;;15.18;8.55;;;5.40;96.40;;;;;;5054862;28;20469;-62
2022/02/01 05:50:41;;;;;;;16.63;9.02;;;5.50;96.50;;;;;;5050356;28;20034;-62
2022/02/01 05:53:07;;;;;;;15.68;8.10;;;5.40;96.50;;;;;;5046466;28;20021;-62
2022/02/01 05:55:34;;;;;;;17.92;8.73;;;5.40;96.60;;;;;;5051659;28;20033;-62
2022/02/01 05:58:00;;;;;;;14.93;8.18;;;5.40;96.70;;;;;;5034649;28;20025;-62
2022/02/01 06:00:26;;;;;;;15.90;8.30;;;5.40;96.70;;;;;;5034987;28;20492;-61
2022/02/01 06:02:51;;;;;;;17.02;8.45;;;5.40;96.70;;;;;;5041061;28;20151;-62
2022/02/01 06:05:18;;;;;;;13.02;7.72;;;5.40;96.80;;;;;;5035643;28;20120;-61
2022/02/01 06:07:44;;;;;;;19.10;8.65;;;5.40;96.80;;;;;;5034331;28;20022;-62
2022/02/01 06:10:09;;;;;;;20.60;8.82;;;5.40;96.80;;;;;;5051915;28;20060;-61
2022/02/01 06:12:42;;;;;;;16.10;9.20;;;5.40;96.80;;;;;;5049630;28;20441;-62
2022/02/01 06:15:09;;;;;;;15.38;8.57;;;5.30;96.90;;;;;;5054329;28;20020;-62
2022/02/01 06:17:35;;;;;;;18.27;8.82;;;5.30;97.10;;;;;;5051905;28;20064;-62
2022/02/01 06:20:02;;;;;;;16.77;9.27;;;5.30;97.00;;;;;;5044630;28;20065;-61
2022/02/01 06:22:28;;;;;;;16.40;8.70;;;5.40;97.10;;;;;;5037999;28;20075;-61
2022/02/01 06:24:54;;;;;;;20.20;9.13;;;5.30;97.00;;;;;;5053806;28;20419;-61
2022/02/01 06:27:19;;;;;;;16.05;9.10;;;5.30;97.10;;;;;;5052711;28;20032;-61
2022/02/01 06:29:45;;;;;;;19.40;10.02;;;5.30;97.20;;;;;;5049011;28;20107;-61
2022/02/01 06:32:10;;;;;;;18.83;9.38;;;5.20;97.20;;;;;;5039614;28;20017;-62
2022/02/01 06:34:36;;;;;;;19.77;9.48;;;5.30;97.20;;;;;;5037825;28;20033;-62
2022/02/01 06:37:02;;;;;;;20.08;10.18;;;5.40;97.30;;;;;;5047995;28;20116;-62
2022/02/01 06:39:27;;;;;;;14.00;8.50;;;5.30;97.30;;;;;;5053873;28;20045;-62
2022/02/01 06:41:54;;;;;;;18.42;9.35;;;5.30;97.30;;;;;;5053916;28;20430;-61
2022/02/01 06:44:19;;;;;;;14.73;8.80;;;5.30;97.40;;;;;;5034843;28;20212;-62
2022/02/01 06:46:45;;;;;;;17.55;8.77;;;5.30;97.40;;;;;;5033850;28;20567;-62
2022/02/01 06:49:11;;;;;;;18.60;9.40;;;5.30;97.50;;;;;;5034722;28;20033;-63
2022/02/01 06:51:42;;;;;;;19.13;9.05;;;5.30;97.40;;;;;;5033452;28;20022;-63
2022/02/01 06:54:09;;;;;;;19.73;9.52;;;5.30;97.50;;;;;;5051248;28;20083;-66
2022/02/01 06:56:35;;;;;;;16.40;8.77;;;5.30;97.40;;;;;;5034206;28;20079;-63
2022/02/01 06:59:02;;;;;;;17.17;8.32;;;5.40;97.40;;;;;;5049493;28;20503;-63
2022/02/01 07:01:29;;;;;;;20.77;8.48;;;5.30;97.50;;;;;;5047924;28;20037;-65
2022/02/01 07:03:55;;;;;;;24.55;8.98;;;5.30;97.50;;;;;;5034163;28;20041;-64
2022/02/01 07:06:21;;;;;;;18.83;8.93;;;5.20;97.50;;;;;;5044541;28;20028;-65
2022/02/01 07:08:48;;;;;;;21.08;8.55;;;5.30;97.50;;;;;;5051969;28;20032;-65
2022/02/01 07:11:16;;;;;;;22.00;8.48;;;5.40;97.60;;;;;;5038778;28;20044;-65
2022/02/01 07:13:42;;;;;;;21.95;9.05;;;5.40;97.60;;;;;;5033702;28;20485;-66
2022/02/01 07:16:08;;;;;;;18.30;9.15;;;5.40;97.60;;;;;;5033827;28;20029;-65
2022/02/01 07:18:33;;;;;;;17.73;8.63;;;5.40;97.50;;;;;;5039300;28;20032;-65
2022/02/01 07:20:59;;;;;;;15.60;8.30;;;5.40;97.50;;;;;;5041721;28;20025;-66
2022/02/01 07:23:26;;;;;;;15.45;7.57;;;5.50;97.50;;;;;;5033125;28;20384;-65
2022/02/01 07:25:53;;;;;;;17.25;8.55;;;5.50;97.50;;;;;;5035136;28;20037;-65
2022/02/01 07:28:20;;;;;;;15.60;7.75;;;5.50;97.50;;;;;;5051915;28;20489;-65
2022/02/01 07:30:46;;;;;;;23.15;9.10;;;5.50;97.40;;;;;;5051067;28;20026;-64
2022/02/01 07:33:13;;;;;;;19.40;7.95;;;5.50;97.70;;;;;;5040414;28;20083;-65
2022/02/01 07:35:38;;;;;;;15.52;7.82;;;5.50;97.90;;;;;;5037911;28;20029;-65
2022/02/01 07:38:06;;;;;;;18.17;8.18;;;5.60;97.90;;;;;;5043905;28;20076;-66
2022/02/01 07:40:31;;;;;;;16.83;6.90;;;5.80;98.00;;;;;;5042085;28;20033;-65
2022/02/01 07:42:57;;;;;;;23.77;7.38;;;5.80;97.80;;;;;;5043533;28;20130;-65
2022/02/01 07:45:27;;;;;;;19.23;7.32;;;5.90;97.70;;;;;;5032527;28;20030;-65
2022/02/01 07:47:54;;;;;;;15.77;7.50;;;5.80;97.50;;;;;;5033382;28;20564;-65
2022/02/01 07:50:19;;;;;;;21.67;7.28;;;5.80;97.40;;;;;;5036288;28;20072;-65
2022/02/01 07:52:45;;;;;;;16.65;6.30;;;5.80;97.40;;;;;;5038539;28;20052;-65
2022/02/01 07:55:11;;;;;;;17.83;6.85;;;5.80;97.30;;;;;;5045224;28;20025;-64
2022/02/01 07:57:37;;;;;;;19.13;6.63;;;5.70;97.30;;;;;;5051143;28;20074;-65
2022/02/01 08:00:05;;;;;;;19.27;6.65;;;5.70;97.20;;;;;;5043115;28;20090;-65
2022/02/01 08:02:31;;;;;;;14.75;6.53;;;5.70;97.20;;;;;;5041600;28;20025;-66
2022/02/01 08:04:57;;;;;;;15.48;5.93;;;5.70;97.20;;;;;;5051256;28;20112;-66
2022/02/01 08:07:24;;;;;;;13.48;5.90;;;5.70;97.20;;;;;;5050646;28;20025;-63
2022/02/01 08:09:58;;;;;;;21.65;6.60;;;5.70;97.20;;;;;;5028864;28;20438;-63
2022/02/01 08:13:25;;;;;;;10.70;5.57;;;5.70;97.30;;;;;;5048895;28;20025;-64
2022/02/01 08:21:00;;;;;;;20.23;6.30;;;5.80;97.30;;;;;;5033759;28;20166;-63
2022/02/01 08:23:25;;;;;;;16.10;5.50;;;5.90;97.40;;;;;;5049576;28;20310;-64
2022/02/01 08:25:51;;;;;;;14.82;5.50;;;5.90;97.30;;;;;;5043838;28;20029;-63
2022/02/01 08:28:18;;;;;;;12.43;5.57;;;6.00;97.30;;;;;;5040863;28;20029;-64
2022/02/01 08:30:44;;;;;;;14.18;6.07;;;6.00;97.20;;;;;;5050458;28;20060;-63
2022/02/01 08:33:09;;;;;;;15.27;5.80;;;6.10;97.20;;;;;;5041041;28;20059;-63
2022/02/01 08:35:35;;;;;;;16.27;5.90;;;6.10;97.10;;;;;;5031410;28;20021;-63
2022/02/01 08:38:02;;;;;;;10.00;4.50;;;6.10;97.10;;;;;;5043196;28;20532;-63
2022/02/01 08:40:27;;;;;;;14.50;6.00;;;6.10;97.10;;;;;;5046806;28;20025;-63
2022/02/01 08:42:53;;;;;;;14.48;5.65;;;6.10;97.10;;;;;;5049400;28;20043;-63
2022/02/01 08:45:24;;;;;;;15.15;5.65;;;6.20;97.10;;;;;;5043803;28;20033;-63
2022/02/01 08:47:51;;;;;;;14.25;5.53;;;6.20;97.10;;;;;;5047570;28;20044;-63
2022/02/01 08:50:20;;;;;;;22.90;6.35;;;6.30;97.20;;;;;;5049644;28;20021;-62
2022/02/01 08:52:48;;;;;;;18.23;5.22;;;6.30;97.10;;;;;;5057206;28;20442;-62
2022/02/01 08:57:59;;;;;;;21.40;7.28;;;6.40;97.00;;;;;;5031385;28;20511;-63
2022/02/01 09:00:24;;;;;;;20.48;6.18;;;6.40;96.90;;;;;;5040866;28;20049;-63
2022/02/01 09:02:50;;;;;;;17.17;6.18;;;6.50;96.90;;;;;;5035665;28;20410;-62
2022/02/01 09:05:16;;;;;;;14.10;4.57;;;6.50;96.80;;;;;;5033975;28;20134;-62
2022/02/01 09:07:44;;;;;;;16.38;5.63;;;6.60;96.80;;;;;;5038550;28;20029;-62
2022/02/01 09:10:10;;;;;;;20.38;5.10;;;6.50;96.70;;;;;;5032710;28;20107;-62
2022/02/01 09:12:35;;;;;;;25.63;7.10;;;6.60;96.80;;;;;;5041431;28;20040;-62
2022/02/01 09:15:01;;;;;;;12.63;4.13;;;6.60;96.70;;;;;;5030733;28;20017;-63
2022/02/01 09:17:26;;;;;;;15.07;4.28;;;6.60;96.60;;;;;;5049635;28;20559;-62
2022/02/01 09:19:52;;;;;;;15.38;4.47;;;6.70;96.60;;;;;;5044232;28;20045;-62
2022/02/01 09:22:20;;;;;;;15.90;4.53;;;6.80;96.60;;;;;;5031017;28;20076;-62
2022/02/01 09:24:45;;;;;;;13.50;4.30;;;6.80;96.50;;;;;;5045024;28;20033;-62
2022/02/01 09:27:13;;;;;;;14.13;4.10;;;6.80;96.40;;;;;;5036718;28;20037;-63
2022/02/01 09:29:38;;;;;;;16.75;4.13;;;6.80;96.40;;;;;;5036221;28;20029;-62
2022/02/01 09:32:05;;;;;;;15.95;4.63;;;6.80;96.30;;;;;;5043689;28;20029;-62
2022/02/01 09:34:31;;;;;;;15.75;4.10;;;6.90;96.30;;;;;;5034224;28;20032;-63
2022/02/01 09:36:58;;;;;;;19.33;4.55;;;6.90;96.30;;;;;;5045101;28;20036;-63
2022/02/01 09:39:24;;;;;;;33.38;5.72;;;7.00;96.30;;;;;;5039032;28;20045;-63
2022/02/01 09:41:51;;;;;;;20.40;4.00;;;7.00;96.20;;;;;;5031629;28;20050;-62
2022/02/01 09:44:18;;;;;;;23.48;4.45;;;7.00;96.10;;;;;;5046535;28;20122;-63
2022/02/01 09:46:49;;;;;;;10.98;3.33;;;7.00;96.00;;;;;;5045639;28;20059;-62
2022/02/01 09:49:19;;;;;;;13.38;3.60;;;7.00;95.90;;;;;;5043937;28;20040;-63
2022/02/01 09:51:46;;;;;;;10.50;3.45;;;7.00;95.90;;;;;;5045571;28;20032;-62
2022/02/01 09:54:11;;;;;;;15.48;3.90;;;7.00;95.90;;;;;;5033405;28;20147;-62
2022/02/01 09:56:37;;;;;;;14.07;4.00;;;7.10;95.90;;;;;;5031675;28;20120;-62
2022/02/01 09:59:14;;;;;;;14.80;3.38;;;7.10;95.80;;;;;;5036524;28;20041;-62
2022/02/01 10:01:44;;;;;;;8.43;3.22;;;7.20;95.80;;;;;;5024829;28;20397;-63
2022/02/01 10:04:10;;;;;;;12.95;3.42;;;7.20;95.80;;;;;;5020604;28;20025;-63
2022/02/01 10:06:38;;;;;;;11.07;3.70;;;7.20;95.90;;;;;;5012684;28;20481;-63
2022/02/01 10:09:07;;;;;;;15.07;3.58;;;7.20;95.80;;;;;;5025962;28;20087;-64
2022/02/01 10:11:45;;;;;;;8.38;3.25;;;7.30;95.80;;;;;;5012253;28;20061;-63
2022/02/01 10:14:21;;;;;;;13.95;3.15;;;7.30;95.70;;;;;;5014882;28;20064;-63
2022/02/01 10:16:51;;;;;;;12.50;3.55;;;7.30;95.70;;;;;;5025432;28;20075;-63
2022/02/01 10:19:18;;;;;;;13.48;3.75;;;7.30;95.60;;;;;;5012666;28;20045;-63
2022/02/01 10:22:01;;;;;;;12.60;3.58;;;7.30;95.50;;;;;;5025943;28;20037;-63
2022/02/01 10:24:37;;;;;;;10.52;3.90;;;7.30;95.70;;;;;;5017247;28;20187;-63
2022/02/01 10:27:09;;;;;;;13.60;3.50;;;7.40;95.70;;;;;;5028694;28;20034;-63
2022/02/01 10:29:38;;;;;;;17.73;4.70;;;7.40;95.60;;;;;;5018874;28;20493;-63
2022/02/01 10:32:25;;;;;;;15.23;4.43;;;7.40;95.50;;;;;;5030605;28;20063;-63
2022/02/01 10:34:52;;;;;;;11.98;3.67;;;7.50;95.50;;;;;;5024273;28;20450;-63
2022/02/01 10:37:20;;;;;;;17.83;5.57;;;7.50;95.50;;;;;;5016123;28;20064;-63
2022/02/01 10:39:48;;;;;;;24.20;4.68;;;7.50;95.40;;;;;;5026120;28;20389;-64
2022/02/01 10:42:15;;;;;;;15.77;4.00;;;7.50;95.30;;;;;;5016283;28;20033;-64
2022/02/01 10:44:46;;;;;;;12.60;3.90;;;7.50;95.30;;;;;;5015408;28;20041;-63
2022/02/01 10:47:31;;;;;;;18.58;4.07;;;7.50;95.20;;;;;;5015598;28;20108;-63
2022/02/01 10:50:07;;;;;;;16.90;4.32;;;7.50;95.10;;;;;;5026234;28;20370;-63
2022/02/01 10:52:35;;;;;;;11.85;3.67;;;7.50;95.10;;;;;;5024172;28;20116;-63
2022/02/01 10:55:03;;;;;;;14.05;4.28;;;7.50;95.40;;;;;;5033837;28;20414;-63
2022/02/01 10:57:29;;;;;;;16.38;3.97;;;7.50;95.20;;;;;;5016844;28;20108;-63
2022/02/01 10:59:55;;;;;;;20.90;4.20;;;7.50;95.10;;;;;;5021529;28;20184;-63
2022/02/01 11:02:22;;;;;;;15.77;3.40;;;7.50;95.20;;;;;;5041598;28;20014;-63
2022/02/01 11:04:51;;;;;;;12.57;3.75;;;7.50;95.20;;;;;;5050390;28;20043;-63
2022/02/01 11:07:17;;;;;;;17.70;3.83;;;7.50;95.10;;;;;;5051763;28;20558;-63
2022/02/01 11:09:43;;;;;;;17.88;5.22;;;7.50;95.00;;;;;;5053715;28;20021;-63
2022/02/01 11:12:10;;;;;;;18.40;5.43;;;7.50;94.90;;;;;;5052020;28;20371;-63
2022/02/01 11:14:41;;;;;;;13.63;4.25;;;7.60;95.00;;;;;;5053150;28;20048;-63
2022/02/01 11:17:08;;;;;;;16.52;4.25;;;7.60;94.90;;;;;;5051867;28;20028;-64
2022/02/01 11:19:53;;;;;;;11.15;3.97;;;7.60;94.90;;;;;;5035451;28;20042;-63
2022/02/01 11:22:25;;;;;;;12.80;4.28;;;7.60;94.90;;;;;;5035541;28;20029;-64
2022/02/01 11:24:56;;;;;;;11.50;4.50;;;7.60;94.90;;;;;;5052306;28;20500;-65
2022/02/01 11:27:37;;;;;;;16.55;4.63;;;7.70;94.90;;;;;;5051958;28;20039;-64
2022/02/01 11:30:11;;;;;;;10.63;3.70;;;7.60;94.90;;;;;;5053436;28;20067;-63
2022/02/01 11:32:40;;;;;;;18.10;4.85;;;7.70;94.90;;;;;;5047613;28;20083;-63
2022/02/01 11:35:08;;;;;;;17.05;4.45;;;7.70;95.00;;;;;;5032938;28;20029;-63
2022/02/01 11:37:44;;;;;;;16.35;3.92;;;7.80;95.00;;;;;;5033630;28;20079;-63
2022/02/01 11:40:13;;;;;;;13.95;3.90;;;7.80;95.00;;;;;;5034376;28;20060;-63
2022/02/01 11:42:41;;;;;;;23.95;7.55;;;7.90;94.90;;;;;;5033664;28;20025;-62
2022/02/01 11:45:07;;;;;;;19.92;5.93;;;7.90;94.80;;;;;;5032935;28;20097;-63
2022/02/01 11:47:37;;;;;;;34.10;7.97;;;8.00;94.70;;;;;;5032891;28;20063;-63
2022/02/01 11:50:11;;;;;;;23.15;6.55;;;8.00;94.80;;;;;;5032826;28;20539;-63
2022/02/01 11:52:45;;;;;;;33.50;7.22;;;8.00;94.80;;;;;;5035633;28;20561;-63
2022/02/01 11:55:12;;;;;;;14.73;3.25;;;8.00;94.70;;;;;;5052536;28;20082;-63
2022/02/01 11:57:43;;;;;;;25.92;5.55;;;8.00;94.60;;;;;;5051490;28;20036;-63
2022/02/01 12:00:23;;;;;;;27.17;6.22;;;8.00;94.50;;;;;;5052416;28;20052;-63
2022/02/01 12:02:52;;;;;;;43.08;6.80;;;8.10;94.50;;;;;;5050265;28;20503;-63
2022/02/01 12:05:34;;;;;;;26.38;5.57;;;8.10;94.50;;;;;;5033999;28;20039;-64
2022/02/01 12:08:17;;;;;;;15.13;3.80;;;8.20;94.40;;;;;;5051731;28;20021;-62
2022/02/01 12:10:51;;;;;;;19.50;4.13;;;8.20;94.30;;;;;;5032541;28;20120;-63
2022/02/01 12:13:20;;;;;;;10.50;3.73;;;8.20;94.20;;;;;;5041816;28;20021;-63
2022/02/01 12:15:47;;;;;;;12.55;3.38;;;8.20;94.10;;;;;;5052338;28;20039;-63
2022/02/01 12:18:53;;;;;;;19.98;5.40;;;8.20;94.10;;;;;;5050150;28;20033;-63
2022/02/01 12:21:28;;;;;;;25.67;4.63;;;8.20;94.10;;;;;;5032082;28;20041;-63
2022/02/01 12:23:56;;;;;;;19.13;4.70;;;8.20;94.00;;;;;;5046341;28;20025;-63
2022/02/01 12:26:25;;;;;;;24.17;5.65;;;8.20;93.90;;;;;;5032604;28;20041;-63
2022/02/01 12:28:55;;;;;;;21.88;5.60;;;8.20;93.90;;;;;;5032759;28;20029;-63
2022/02/01 12:31:23;;;;;;;23.13;4.55;;;8.30;93.90;;;;;;5032218;28;20473;-64
2022/02/01 12:33:53;;;;;;;20.80;4.50;;;8.30;93.90;;;;;;5032288;28;20095;-63
2022/02/01 12:36:26;;;;;;;14.68;3.60;;;8.30;93.80;;;;;;5031866;28;20068;-64
2022/02/01 12:39:11;;;;;;;13.27;3.53;;;8.30;93.80;;;;;;5024310;28;20121;-63
2022/02/01 12:41:43;;;;;;;;;;;8.20;93.80;;;;;;5032559;28;20038;-63
2022/02/01 12:46:48;;;;;;;24.45;5.15;;;8.20;93.70;;;;;;5050878;28;20105;-63
2022/02/01 12:49:15;;;;;;;10.60;3.45;;;8.10;93.80;;;;;;5050004;28;20028;-63
2022/02/01 12:51:43;;;;;;;13.50;3.88;;;8.20;93.90;;;;;;5051740;28;20108;-62
2022/02/01 12:54:21;;;;;;;14.20;3.30;;;8.20;93.80;;;;;;5049985;28;20106;-63
2022/02/01 12:56:47;;;;;;;27.58;6.28;;;8.20;93.80;;;;;;5051810;28;20037;-62
2022/02/01 12:59:13;;;;;;;22.10;4.35;;;8.20;93.90;;;;;;5049533;28;20079;-63
2022/02/01 13:01:39;;;;;;;15.18;3.55;;;8.20;94.00;;;;;;5049193;28;20041;-63
2022/02/01 13:04:06;;;;;;;15.30;5.18;;;8.20;94.00;;;;;;5049996;28;20035;-63
2022/02/01 13:06:36;;;;;;;12.32;3.55;;;8.20;94.00;;;;;;5051552;28;20025;-63
2022/02/01 13:14:42;;;;;;;19.00;5.57;;;8.20;94.20;;;;;;5031532;28;20534;-63
2022/02/01 13:17:24;;;;;;;19.13;4.13;;;8.20;94.30;;;;;;5032328;28;20037;-63
2022/02/01 13:20:06;;;;;;;16.75;4.15;;;8.20;94.30;;;;;;5050882;28;20041;-63
2022/02/01 13:22:34;;;;;;;24.13;3.85;;;8.20;94.30;;;;;;5050043;28;20060;-63
2022/02/01 13:25:05;;;;;;;13.27;3.60;;;8.20;94.30;;;;;;5051024;28;20032;-64
2022/02/01 13:27:31;;;;;;;17.42;4.22;;;8.20;94.50;;;;;;5046584;28;20488;-63
2022/02/01 13:30:06;;;;;;;20.73;4.40;;;8.10;94.50;;;;;;5038852;28;20037;-64
2022/02/01 13:32:39;;;;;;;17.25;3.85;;;8.10;94.50;;;;;;5034805;28;20029;-64
2022/02/01 13:35:07;;;;;;;12.80;3.50;;;8.00;94.60;;;;;;5050949;28;20159;-64
2022/02/01 13:37:34;;;;;;;14.88;3.65;;;8.00;94.60;;;;;;5050491;28;20025;-64
2022/02/01 13:40:01;;;;;;;17.58;3.35;;;8.00;94.60;;;;;;5038635;28;20043;-65
2022/02/01 13:42:32;;;;;;;11.68;2.97;;;8.00;94.60;;;;;;5034325;28;20108;-65
2022/02/01 13:45:00;;;;;;;15.48;3.63;;;8.00;94.50;;;;;;5035112;28;20086;-64
2022/02/01 13:47:43;;;;;;;16.30;4.25;;;8.00;94.50;;;;;;5036164;28;20400;-64
2022/02/01 13:50:12;;;;;;;11.98;3.50;;;7.90;94.50;;;;;;5034705;28;20033;-64
2022/02/01 13:52:38;;;;;;;24.90;3.55;;;7.90;94.60;;;;;;5038455;28;20136;-64
2022/02/01 13:55:16;;;;;;;11.82;3.58;;;7.80;94.60;;;;;;5036088;28;20552;-63
2022/02/01 13:57:41;;;;;;;14.02;3.55;;;7.80;94.60;;;;;;5036658;28;20033;-64
2022/02/01 14:00:12;;;;;;;13.43;4.10;;;7.70;94.60;;;;;;5034695;28;20076;-63
2022/02/01 14:02:44;;;;;;;8.90;3.13;;;7.60;94.70;;;;;;5035681;28;20041;-64
2022/02/01 14:05:21;;;;;;;24.73;4.72;;;7.60;94.80;;;;;;5043360;28;20068;-64
2022/02/01 14:08:22;;;;;;;21.23;4.93;;;7.50;95.00;;;;;;5039157;28;20025;-63
2022/02/01 14:10:58;;;;;;;9.10;2.60;;;7.40;95.20;;;;;;5038365;28;20025;-63
2022/02/01 14:16:31;;;;;;;18.30;3.28;;;7.40;95.30;;;;;;5040057;28;20064;-63
2022/02/01 14:27:32;;;;;;;24.98;4.55;;;7.10;95.70;;;;;;5039169;28;20045;-63